Time;durP1;ratioP1;P1;durP2;ratioP2;P2;SDS_P1;SDS_P2;PMS_P1;PMS_P2;Temp;Humidity;BMP_temperature;BMP_pressure;BME280_temperature;BME280_humidity;BME280_pressure;Samples;Min_cycle;Max_cycle;Signal;HPM_P1;HPM_P2
2021/10/25 00:01:29;;;;;;;18.83;10.10;;;;;;;;;;4940543;28;20759;-64
2021/10/25 00:03:54;;;;;;;18.40;10.30;;;;;;;;;;4949928;28;20026;-63
2021/10/25 00:06:20;;;;;;;20.45;12.27;;;;;;;;;;4940354;28;20047;-63
2021/10/25 00:08:46;;;;;;;22.02;11.43;;;;;;;;;;4940507;28;20030;-64
2021/10/25 00:11:11;;;;;;;23.52;12.35;;;;;;;;;;4949597;28;20106;-65
2021/10/25 00:13:37;;;;;;;27.15;13.18;;;;;;;;;;4949745;28;20046;-63
2021/10/25 00:16:02;;;;;;;30.83;14.73;;;;;;;;;;4945847;28;20837;-64
2021/10/25 00:18:28;;;;;;;29.27;14.45;;;;;;;;;;4946784;29;20371;-64
2021/10/25 00:20:53;;;;;;;25.85;13.75;;;;;;;;;;4946716;28;20078;-63
2021/10/25 00:23:18;;;;;;;25.27;14.07;;;;;;;;;;4948911;29;20385;-63
2021/10/25 00:25:43;;;;;;;25.23;13.20;;;;;;;;;;4943519;28;20397;-63
2021/10/25 00:28:09;;;;;;;25.73;13.20;;;;;;;;;;4946381;28;20054;-63
2021/10/25 00:30:34;;;;;;;17.60;11.63;;;;;;;;;;4948964;28;20606;-63
2021/10/25 00:32:59;;;;;;;20.20;11.68;;;;;;;;;;4949292;28;20102;-65
2021/10/25 00:35:24;;;;;;;25.20;11.55;;;;;;;;;;4948635;28;20043;-65
2021/10/25 00:37:50;;;;;;;27.05;12.85;;;;;;;;;;4944732;28;20021;-65
2021/10/25 00:40:15;;;;;;;27.65;12.60;;;;;;;;;;4940813;28;21177;-64
2021/10/25 00:42:40;;;;;;;26.00;12.93;;;;;;;;;;4943334;28;20015;-63
2021/10/25 00:45:05;;;;;;;23.63;13.25;;;;;;;;;;4942664;28;20065;-63
2021/10/25 00:47:31;;;;;;;21.98;13.80;;;;;;;;;;4949809;28;20099;-63
2021/10/25 00:49:56;;;;;;;27.50;13.32;;;;;;;;;;4948553;28;20067;-63
2021/10/25 00:52:21;;;;;;;28.55;15.52;;;;;;;;;;4940270;28;20047;-63
2021/10/25 00:54:46;;;;;;;32.47;17.20;;;;;;;;;;4941148;28;20068;-65
2021/10/25 00:57:12;;;;;;;30.95;16.48;;;;;;;;;;4947459;28;20028;-63
2021/10/25 00:59:37;;;;;;;30.77;15.68;;;;;;;;;;4948027;28;20477;-63
2021/10/25 01:02:02;;;;;;;23.77;13.98;;;;;;;;;;4949238;28;20039;-64
2021/10/25 01:04:27;;;;;;;29.70;15.80;;;;;;;;;;4932461;28;20028;-63
2021/10/25 01:06:53;;;;;;;26.95;15.30;;;;;;;;;;4942506;28;20130;-64
2021/10/25 01:09:19;;;;;;;29.20;14.20;;;;;;;;;;4945266;28;20086;-64
2021/10/25 01:11:44;;;;;;;21.27;13.38;;;;;;;;;;4942963;28;20059;-63
2021/10/25 01:14:09;;;;;;;27.13;13.48;;;;;;;;;;4943003;28;20486;-63
2021/10/25 01:16:34;;;;;;;27.00;13.50;;;;;;;;;;4941918;28;20044;-63
2021/10/25 01:18:59;;;;;;;24.67;12.82;;;;;;;;;;4936721;28;20035;-64
2021/10/25 01:21:25;;;;;;;29.15;14.23;;;;;;;;;;4947129;28;20039;-62
2021/10/25 01:23:50;;;;;;;24.30;11.77;;;;;;;;;;4942287;28;20105;-64
2021/10/25 01:26:16;;;;;;;19.55;11.65;;;;;;;;;;4946364;28;20139;-62
2021/10/25 01:28:41;;;;;;;17.38;10.50;;;;;;;;;;4939992;28;20037;-62
2021/10/25 01:31:06;;;;;;;21.25;11.10;;;;;;;;;;4947423;28;20127;-62
2021/10/25 01:33:33;;;;;;;20.17;11.30;;;;;;;;;;4948947;28;20072;-62
2021/10/25 01:35:59;;;;;;;20.83;12.50;;;;;;;;;;4947967;28;20050;-63
2021/10/25 01:38:24;;;;;;;32.30;13.68;;;;;;;;;;4944896;28;20035;-63
2021/10/25 01:40:49;;;;;;;20.70;12.40;;;;;;;;;;4947248;28;20055;-63
2021/10/25 01:43:14;;;;;;;66.65;13.40;;;;;;;;;;4952582;28;20049;-62
2021/10/25 01:45:40;;;;;;;65.97;12.05;;;;;;;;;;4945222;28;20039;-62
2021/10/25 01:48:05;;;;;;;57.88;11.98;;;;;;;;;;4947835;28;20047;-62
2021/10/25 01:50:30;;;;;;;71.93;13.50;;;;;;;;;;4947196;28;20049;-62
2021/10/25 01:52:55;;;;;;;53.90;13.48;;;;;;;;;;4948007;28;20031;-62
2021/10/25 01:55:21;;;;;;;32.50;13.95;;;;;;;;;;4947353;28;20042;-62
2021/10/25 01:57:46;;;;;;;37.22;15.57;;;;;;;;;;4947626;28;20103;-62
2021/10/25 02:00:12;;;;;;;34.47;14.75;;;;;;;;;;4947524;28;20020;-64
2021/10/25 02:02:37;;;;;;;24.02;14.18;;;;;;;;;;4943261;28;20459;-61
2021/10/25 02:05:02;;;;;;;25.38;12.98;;;;;;;;;;4951283;28;20037;-64
2021/10/25 02:07:28;;;;;;;43.58;13.32;;;;;;;;;;4942642;28;20557;-62
2021/10/25 02:09:53;;;;;;;59.03;12.48;;;;;;;;;;4945698;28;20713;-62
2021/10/25 02:12:18;;;;;;;37.50;12.27;;;;;;;;;;4941553;28;20126;-62
2021/10/25 02:14:44;;;;;;;29.42;12.70;;;;;;;;;;4941353;28;20051;-61
2021/10/25 02:17:09;;;;;;;52.28;12.65;;;;;;;;;;4942117;28;20576;-62
2021/10/25 02:19:34;;;;;;;57.97;12.60;;;;;;;;;;4940506;28;20110;-62
2021/10/25 02:21:59;;;;;;;69.50;12.70;;;;;;;;;;4941686;28;20047;-62
2021/10/25 02:24:24;;;;;;;32.00;12.02;;;;;;;;;;4942901;28;20520;-61
2021/10/25 02:26:50;;;;;;;30.63;11.13;;;;;;;;;;4940805;28;20047;-62
2021/10/25 02:29:15;;;;;;;37.58;11.82;;;;;;;;;;4942798;28;20038;-62
2021/10/25 02:31:40;;;;;;;37.20;12.30;;;;;;;;;;4945689;28;20045;-62
2021/10/25 02:34:05;;;;;;;28.15;12.20;;;;;;;;;;4950027;28;20438;-62
2021/10/25 02:36:31;;;;;;;28.33;11.18;;;;;;;;;;4942706;28;20039;-62
2021/10/25 02:38:56;;;;;;;25.50;11.43;;;;;;;;;;4947064;28;20153;-62
2021/10/25 02:41:22;;;;;;;41.35;10.13;;;;;;;;;;4937789;28;20074;-62
2021/10/25 02:43:47;;;;;;;70.05;11.35;;;;;;;;;;4940412;28;20114;-62
2021/10/25 02:46:13;;;;;;;82.38;12.23;;;;;;;;;;4942022;28;20059;-62
2021/10/25 02:48:39;;;;;;;38.17;11.98;;;;;;;;;;4938175;28;20382;-61
2021/10/25 02:51:05;;;;;;;23.48;10.43;;;;;;;;;;4945057;28;20089;-62
2021/10/25 02:53:30;;;;;;;34.53;10.93;;;;;;;;;;4945380;28;21047;-61
2021/10/25 02:55:55;;;;;;;37.75;10.25;;;;;;;;;;4935220;28;20105;-61
2021/10/25 02:58:21;;;;;;;52.63;11.05;;;;;;;;;;4939393;28;20393;-61
2021/10/25 03:00:46;;;;;;;27.80;11.25;;;;;;;;;;4946510;28;20058;-61
2021/10/25 03:03:11;;;;;;;21.75;10.32;;;;;;;;;;4943112;28;20055;-61
2021/10/25 03:05:37;;;;;;;37.67;11.32;;;;;;;;;;4942198;28;20149;-62
2021/10/25 03:08:02;;;;;;;45.58;10.55;;;;;;;;;;4946040;28;20126;-61
2021/10/25 03:10:27;;;;;;;20.95;10.18;;;;;;;;;;4946489;28;20125;-62
2021/10/25 03:12:52;;;;;;;61.85;12.40;;;;;;;;;;4947023;28;20182;-62
2021/10/25 03:15:18;;;;;;;21.50;11.77;;;;;;;;;;4943149;28;20139;-62
2021/10/25 03:17:44;;;;;;;22.60;11.63;;;;;;;;;;4946805;29;20393;-62
2021/10/25 03:20:11;;;;;;;21.08;11.90;;;;;;;;;;4938530;28;20060;-62
2021/10/25 03:22:36;;;;;;;23.85;13.02;;;;;;;;;;4936709;28;20106;-62
2021/10/25 03:25:02;;;;;;;28.38;13.38;;;;;;;;;;4945435;28;20190;-62
2021/10/25 03:27:27;;;;;;;23.02;12.55;;;;;;;;;;4950072;28;20809;-62
2021/10/25 03:29:52;;;;;;;37.00;13.07;;;;;;;;;;4948612;28;20402;-62
2021/10/25 03:32:18;;;;;;;30.55;11.30;;;;;;;;;;4948701;28;20505;-62
2021/10/25 03:34:43;;;;;;;38.28;11.07;;;;;;;;;;4944819;28;20035;-62
2021/10/25 03:37:08;;;;;;;36.20;11.48;;;;;;;;;;4946697;28;20035;-62
2021/10/25 03:39:36;;;;;;;92.03;13.20;;;;;;;;;;4961386;28;20064;-62
2021/10/25 03:42:06;;;;;;;56.38;11.85;;;;;;;;;;4939101;28;20047;-62
2021/10/25 03:44:43;;;;;;;44.45;11.85;;;;;;;;;;4948033;28;20022;-62
2021/10/25 03:47:16;;;;;;;22.08;10.73;;;;;;;;;;4938898;28;20062;-62
2021/10/25 03:52:19;;;;;;;42.25;12.77;;;;;;;;;;4949748;28;20138;-61
2021/10/25 03:55:11;;;;;;;52.78;13.73;;;;;;;;;;4946727;28;20027;-62
2021/10/25 03:58:04;;;;;;;55.83;12.65;;;;;;;;;;4940318;28;20043;-62
2021/10/25 04:03:23;;;;;;;33.13;16.77;;;;;;;;;;4933629;29;20037;-62
2021/10/25 04:30:05;;;;;;;46.47;13.90;;;;;;;;;;4948568;28;20037;-62
2021/10/25 04:32:31;;;;;;;45.13;12.52;;;;;;;;;;4942587;28;20031;-62
2021/10/25 04:34:56;;;;;;;37.70;12.25;;;;;;;;;;4945037;28;20038;-62
2021/10/25 04:37:21;;;;;;;47.75;12.65;;;;;;;;;;4935662;28;20087;-62
2021/10/25 04:39:46;;;;;;;52.50;11.32;;;;;;;;;;4938568;29;20027;-62
2021/10/25 04:42:16;;;;;;;32.63;10.48;;;;;;;;;;4943259;28;20035;-62
2021/10/25 04:44:42;;;;;;;20.02;9.68;;;;;;;;;;4949087;28;20081;-62
2021/10/25 04:47:07;;;;;;;39.55;9.95;;;;;;;;;;4961996;28;20118;-62
2021/10/25 04:49:33;;;;;;;36.67;9.63;;;;;;;;;;4939192;28;20027;-62
2021/10/25 04:51:58;;;;;;;41.58;11.13;;;;;;;;;;4943241;28;20524;-62
2021/10/25 04:54:23;;;;;;;80.65;11.90;;;;;;;;;;4943606;28;20090;-62
2021/10/25 04:56:48;;;;;;;108.25;10.50;;;;;;;;;;4948171;28;20580;-61
2021/10/25 04:59:14;;;;;;;100.18;10.30;;;;;;;;;;4949088;28;20019;-63
2021/10/25 05:01:39;;;;;;;125.00;12.85;;;;;;;;;;4944191;28;20717;-62
2021/10/25 05:04:04;;;;;;;53.00;11.13;;;;;;;;;;4947497;28;20038;-62
2021/10/25 05:06:29;;;;;;;89.40;12.32;;;;;;;;;;4941017;28;20046;-61
2021/10/25 05:08:54;;;;;;;122.32;14.73;;;;;;;;;;4945773;29;20023;-63
2021/10/25 05:11:20;;;;;;;62.20;14.50;;;;;;;;;;4948603;28;20028;-61
2021/10/25 05:13:45;;;;;;;31.38;12.85;;;;;;;;;;4946502;29;20450;-62
2021/10/25 05:16:10;;;;;;;167.80;13.73;;;;;;;;;;4941702;28;20042;-62
2021/10/25 05:18:35;;;;;;;126.18;10.55;;;;;;;;;;4947891;28;20030;-61
2021/10/25 05:21:01;;;;;;;139.38;10.15;;;;;;;;;;4940831;28;20442;-61
2021/10/25 05:23:26;;;;;;;94.63;9.15;;;;;;;;;;4948139;29;20474;-62
2021/10/25 05:25:51;;;;;;;118.68;12.05;;;;;;;;;;4960885;28;20056;-62
2021/10/25 05:28:17;;;;;;;55.22;10.73;;;;;;;;;;4943670;28;20067;-62
2021/10/25 05:30:42;;;;;;;107.80;12.35;;;;;;;;;;4946397;28;20035;-62
2021/10/25 05:33:08;;;;;;;48.00;12.00;;;;;;;;;;4946279;29;20390;-62
2021/10/25 05:35:33;;;;;;;42.33;12.48;;;;;;;;;;4936132;28;20047;-63
2021/10/25 05:37:59;;;;;;;41.30;12.98;;;;;;;;;;4945593;28;20019;-62
2021/10/25 05:40:24;;;;;;;46.85;13.10;;;;;;;;;;4939912;29;20040;-62
2021/10/25 05:42:50;;;;;;;45.25;13.88;;;;;;;;;;4946091;29;20027;-62
2021/10/25 05:45:16;;;;;;;61.83;12.55;;;;;;;;;;4938857;28;20034;-62
2021/10/25 05:47:41;;;;;;;98.63;13.77;;;;;;;;;;4942436;29;20032;-62
2021/10/25 05:50:06;;;;;;;109.57;11.98;;;;;;;;;;4944235;28;20055;-62
2021/10/25 05:52:32;;;;;;;71.43;11.27;;;;;;;;;;4935087;28;20062;-62
2021/10/25 05:54:57;;;;;;;51.00;10.85;;;;;;;;;;4946251;28;20568;-62
2021/10/25 05:57:23;;;;;;;55.35;13.63;;;;;;;;;;4947105;28;20051;-62
2021/10/25 05:59:49;;;;;;;89.82;15.50;;;;;;;;;;4948366;28;20042;-62
2021/10/25 06:02:31;;;;;;;58.25;15.68;;;;;;;;;;4942039;28;20035;-62
2021/10/25 06:04:57;;;;;;;73.78;17.20;;;;;;;;;;4943508;29;20035;-62
2021/10/25 06:07:23;;;;;;;100.15;17.63;;;;;;;;;;4947279;28;20043;-62
2021/10/25 06:09:48;;;;;;;120.55;18.08;;;;;;;;;;4946787;29;20019;-62
2021/10/25 06:12:20;;;;;;;85.07;20.35;;;;;;;;;;4948352;28;20051;-62
2021/10/25 06:14:47;;;;;;;68.05;16.90;;;;;;;;;;4938586;29;20040;-62
2021/10/25 06:20:11;;;;;;;58.65;15.75;;;;;;;;;;4912734;28;20042;-63
2021/10/25 06:22:38;;;;;;;73.88;16.35;;;;;;;;;;4933143;29;20459;-62
2021/10/25 06:25:04;;;;;;;85.00;16.27;;;;;;;;;;4938727;28;20049;-62
2021/10/25 06:27:29;;;;;;;56.05;17.52;;;;;;;;;;4945898;29;20654;-62
2021/10/25 06:29:55;;;;;;;106.28;27.00;;;;;;;;;;4940667;28;20042;-62
2021/10/25 06:32:20;;;;;;;125.82;24.60;;;;;;;;;;4937325;28;20724;-62
2021/10/25 06:34:49;;;;;;;112.82;17.00;;;;;;;;;;4937402;29;20056;-63
2021/10/25 06:37:14;;;;;;;38.13;12.15;;;;;;;;;;4937339;28;20501;-62
2021/10/25 06:39:42;;;;;;;39.88;11.30;;;;;;;;;;4943567;28;20478;-63
2021/10/25 06:42:08;;;;;;;84.95;12.40;;;;;;;;;;4943799;28;20069;-62
2021/10/25 06:44:47;;;;;;;101.53;13.75;;;;;;;;;;4946313;28;20042;-62
2021/10/25 06:47:12;;;;;;;40.67;19.60;;;;;;;;;;4945427;28;20151;-62
2021/10/25 06:49:37;;;;;;;81.75;19.02;;;;;;;;;;4934916;28;20416;-63
2021/10/25 06:52:03;;;;;;;80.57;15.20;;;;;;;;;;4942333;28;20082;-62
2021/10/25 06:54:28;;;;;;;66.00;11.88;;;;;;;;;;4941748;28;20206;-62
2021/10/25 06:56:53;;;;;;;69.50;16.48;;;;;;;;;;4946237;28;20039;-62
2021/10/25 06:59:19;;;;;;;80.13;11.40;;;;;;;;;;4946490;28;20043;-62
2021/10/25 07:01:44;;;;;;;59.00;10.27;;;;;;;;;;4944702;28;20032;-63
2021/10/25 07:04:09;;;;;;;71.85;10.60;;;;;;;;;;4956171;28;20094;-63
2021/10/25 07:06:35;;;;;;;36.42;9.93;;;;;;;;;;4947159;28;20047;-62
2021/10/25 07:09:03;;;;;;;35.85;9.82;;;;;;;;;;4947640;28;20031;-63
2021/10/25 07:11:29;;;;;;;63.15;10.70;;;;;;;;;;4939420;28;20043;-63
2021/10/25 07:13:55;;;;;;;54.22;9.45;;;;;;;;;;4941760;28;20248;-64
2021/10/25 07:16:28;;;;;;;26.27;9.80;;;;;;;;;;4947574;28;20122;-63
2021/10/25 08:10:11;;;;;;;42.17;11.93;;;;;;;;;;4950128;28;20038;-64
2021/10/25 08:12:44;;;;;;;64.43;13.13;;;;;;;;;;4949175;28;21920;-64
2021/10/25 08:15:16;;;;;;;43.58;16.75;;;;;;;;;;4949006;28;20105;-64
2021/10/25 08:17:47;;;;;;;48.10;12.55;;;;;;;;;;4949940;28;20035;-64
2021/10/25 08:20:12;;;;;;;64.07;12.13;;;;;;;;;;4936596;28;20114;-64
2021/10/25 08:22:38;;;;;;;29.73;12.18;;;;;;;;;;4939180;28;20118;-64
2021/10/25 08:25:03;;;;;;;59.17;15.60;;;;;;;;;;4946429;28;20474;-64
2021/10/25 08:27:29;;;;;;;43.85;16.50;;;;;;;;;;4946198;28;20055;-64
2021/10/25 08:29:55;;;;;;;58.50;17.85;;;;;;;;;;4941660;28;20036;-64
2021/10/25 08:39:47;;;;;;;46.70;13.65;;;;;;;;;;4940790;28;20470;-65
2021/10/25 08:42:12;;;;;;;37.28;12.85;;;;;;;;;;4940620;28;20043;-65
2021/10/25 08:44:38;;;;;;;48.88;12.05;;;;;;;;;;4931930;29;20085;-63
2021/10/25 08:47:04;;;;;;;40.25;10.07;;;;;;;;;;4942189;28;20051;-64
2021/10/25 08:49:30;;;;;;;29.35;10.45;;;;;;;;;;4945856;28;20183;-64
2021/10/25 08:51:55;;;;;;;56.65;10.65;;;;;;;;;;4942934;28;20047;-64
2021/10/25 08:54:20;;;;;;;50.47;10.13;;;;;;;;;;4947338;28;20042;-64
2021/10/25 08:56:46;;;;;;;42.35;10.18;;;;;;;;;;4942963;28;20070;-64
2021/10/25 08:59:11;;;;;;;31.23;10.98;;;;;;;;;;4945434;28;20127;-64
2021/10/25 09:01:36;;;;;;;39.70;11.45;;;;;;;;;;4934008;28;20549;-64
2021/10/25 09:04:02;;;;;;;43.80;11.32;;;;;;;;;;4945053;28;20486;-64
2021/10/25 09:06:28;;;;;;;31.65;12.52;;;;;;;;;;4937904;28;20048;-64
2021/10/25 09:09:00;;;;;;;40.47;11.35;;;;;;;;;;4941096;28;20041;-64
2021/10/25 09:11:25;;;;;;;36.80;10.18;;;;;;;;;;4931088;28;20510;-64
2021/10/25 09:13:50;;;;;;;52.05;10.38;;;;;;;;;;4943551;28;20046;-64
2021/10/25 09:16:17;;;;;;;41.65;10.88;;;;;;;;;;4944352;28;20724;-64
2021/10/25 09:18:43;;;;;;;28.40;10.00;;;;;;;;;;4944428;28;20034;-64
2021/10/25 09:21:10;;;;;;;19.02;10.43;;;;;;;;;;4945028;28;20039;-64
2021/10/25 09:23:36;;;;;;;35.20;9.93;;;;;;;;;;4922671;29;20142;-64
2021/10/25 09:26:03;;;;;;;32.72;10.70;;;;;;;;;;4939460;28;20146;-64
2021/10/25 09:28:30;;;;;;;32.80;11.32;;;;;;;;;;4951346;28;20039;-64
2021/10/25 09:31:00;;;;;;;31.70;13.30;;;;;;;;;;4948213;28;20050;-64
2021/10/25 09:33:32;;;;;;;17.23;10.40;;;;;;;;;;4941432;28;20054;-64
2021/10/25 09:36:05;;;;;;;38.85;11.85;;;;;;;;;;4947424;28;20171;-64
2021/10/25 09:49:34;;;;;;;18.58;12.55;;;;;;;;;;4935982;29;20091;-64
2021/10/25 09:52:00;;;;;;;27.35;15.10;;;;;;;;;;4943624;28;20039;-64
2021/10/25 09:54:26;;;;;;;17.45;10.93;;;;;;;;;;4924807;29;20034;-65
2021/10/25 09:57:20;;;;;;;39.38;20.88;;;;;;;;;;4940437;28;20421;-67
2021/10/25 09:59:51;;;;;;;22.10;13.23;;;;;;;;;;4935291;29;20042;-64
2021/10/25 10:02:16;;;;;;;21.83;11.85;;;;;;;;;;4943170;28;20043;-63
2021/10/25 10:04:43;;;;;;;28.40;12.90;;;;;;;;;;4943942;29;20023;-66
2021/10/25 10:07:12;;;;;;;42.00;16.88;;;;;;;;;;4928002;29;20052;-64
2021/10/25 10:09:45;;;;;;;18.85;11.85;;;;;;;;;;4943716;28;20095;-64
2021/10/25 10:12:12;;;;;;;27.40;14.63;;;;;;;;;;4960722;28;20078;-64
2021/10/25 10:14:37;;;;;;;21.90;10.88;;;;;;;;;;4934522;28;20481;-65
2021/10/25 10:17:03;;;;;;;21.25;12.20;;;;;;;;;;4941897;28;20044;-64
2021/10/25 10:19:29;;;;;;;36.30;18.13;;;;;;;;;;4942102;29;20035;-64
2021/10/25 10:21:55;;;;;;;91.35;43.17;;;;;;;;;;4947026;28;20130;-64
2021/10/25 10:24:24;;;;;;;17.90;11.90;;;;;;;;;;4943872;29;20257;-66
2021/10/25 10:26:57;;;;;;;33.80;16.13;;;;;;;;;;4940419;28;20502;-65
2021/10/25 10:29:22;;;;;;;15.82;10.32;;;;;;;;;;4946628;29;20031;-66
2021/10/25 10:31:57;;;;;;;20.38;11.27;;;;;;;;;;4945938;28;20531;-65
2021/10/25 10:34:22;;;;;;;44.58;17.67;;;;;;;;;;4943606;28;20836;-64
2021/10/25 10:36:51;;;;;;;28.15;11.90;;;;;;;;;;4936359;28;20743;-64
2021/10/25 10:39:16;;;;;;;22.13;11.18;;;;;;;;;;4936270;29;20059;-64
2021/10/25 10:41:46;;;;;;;20.05;14.10;;;;;;;;;;4942477;28;20828;-66
2021/10/25 10:44:12;;;;;;;22.35;9.90;;;;;;;;;;4938933;28;20019;-65
2021/10/25 10:46:55;;;;;;;18.75;10.63;;;;;;;;;;4944224;28;20051;-65
2021/10/25 10:49:26;;;;;;;16.40;10.77;;;;;;;;;;4941800;28;20027;-64
2021/10/25 10:55:00;;;;;;;43.55;25.90;;;;;;;;;;4942037;28;20064;-64
2021/10/25 11:00:26;;;;;;;;;;;;;;;;;;4896294;29;20278;-65
2021/10/25 11:02:55;;;;;;;35.00;16.65;;;;;;;;;;4934124;29;20380;-65
2021/10/25 11:05:35;;;;;;;24.98;15.73;;;;;;;;;;4943806;28;20751;-65
2021/10/25 11:08:00;;;;;;;;;;;;;;;;;;4945693;28;20027;-64
2021/10/25 11:10:27;;;;;;;16.85;8.98;;;;;;;;;;4935987;28;19926;-65
2021/10/25 11:12:59;;;;;;;14.93;9.32;;;;;;;;;;4934128;28;20039;-65
2021/10/25 11:15:34;;;;;;;14.50;10.60;;;;;;;;;;4940623;28;20133;-64
2021/10/25 11:18:01;;;;;;;18.63;11.35;;;;;;;;;;4936149;28;20101;-65
2021/10/25 11:20:26;;;;;;;16.85;9.85;;;;;;;;;;4944559;28;20043;-65
2021/10/25 11:22:51;;;;;;;19.27;12.15;;;;;;;;;;4941198;28;20035;-65
2021/10/25 11:25:17;;;;;;;20.58;11.40;;;;;;;;;;4934605;28;20028;-65
2021/10/25 11:27:43;;;;;;;22.80;10.15;;;;;;;;;;4943969;29;20034;-64
2021/10/25 11:30:10;;;;;;;16.40;12.23;;;;;;;;;;4945436;28;20031;-64
2021/10/25 11:32:35;;;;;;;18.05;9.93;;;;;;;;;;4946488;28;20074;-65
2021/10/25 11:35:02;;;;;;;31.70;10.40;;;;;;;;;;4941609;28;20618;-64
2021/10/25 11:37:27;;;;;;;24.50;11.38;;;;;;;;;;4945296;29;20035;-64
2021/10/25 11:39:58;;;;;;;27.90;11.80;;;;;;;;;;4939852;28;20450;-64
2021/10/25 11:42:23;;;;;;;;;;;;;;;;;;4947460;28;20081;-64
2021/10/25 11:44:49;;;;;;;20.70;10.98;;;;;;;;;;4947345;28;19994;-64
2021/10/25 11:47:21;;;;;;;28.98;12.30;;;;;;;;;;4947250;28;20090;-64
2021/10/25 11:49:47;;;;;;;23.00;13.07;;;;;;;;;;4941217;28;20110;-64
2021/10/25 11:52:12;;;;;;;19.48;12.43;;;;;;;;;;4946692;28;20574;-64
2021/10/25 11:54:45;;;;;;;26.25;17.23;;;;;;;;;;4961857;28;20027;-64
2021/10/25 11:57:10;;;;;;;44.40;21.52;;;;;;;;;;4948848;28;20114;-64
2021/10/25 11:59:35;;;;;;;26.30;14.20;;;;;;;;;;4949877;28;20457;-64
2021/10/25 12:02:07;;;;;;;27.75;13.43;;;;;;;;;;4935471;28;20545;-65
2021/10/25 12:04:32;;;;;;;23.45;13.90;;;;;;;;;;4940737;28;21588;-64
2021/10/25 12:06:57;;;;;;;31.10;14.10;;;;;;;;;;4948009;28;20130;-64
2021/10/25 12:09:28;;;;;;;33.78;14.88;;;;;;;;;;4948754;28;20027;-64
2021/10/25 12:12:04;;;;;;;26.10;13.57;;;;;;;;;;4950033;28;20146;-64
2021/10/25 12:14:33;;;;;;;36.03;13.10;;;;;;;;;;4939032;28;20047;-64
2021/10/25 12:16:58;;;;;;;35.17;14.50;;;;;;;;;;4947652;28;20122;-64
2021/10/25 12:19:24;;;;;;;32.08;14.60;;;;;;;;;;4948921;28;20449;-64
2021/10/25 12:21:49;;;;;;;23.15;12.55;;;;;;;;;;4943441;28;20181;-64
2021/10/25 12:24:14;;;;;;;25.20;12.73;;;;;;;;;;4949197;28;20396;-64
2021/10/25 12:26:40;;;;;;;26.80;12.10;;;;;;;;;;4947691;28;20043;-63
2021/10/25 12:29:12;;;;;;;26.35;12.27;;;;;;;;;;4947229;28;20095;-65
2021/10/25 12:31:37;;;;;;;20.05;11.90;;;;;;;;;;4941575;28;20051;-65
2021/10/25 12:34:03;;;;;;;25.45;11.25;;;;;;;;;;4945401;29;20600;-64
2021/10/25 12:36:32;;;;;;;18.92;10.95;;;;;;;;;;4943003;28;20651;-64
2021/10/25 12:38:57;;;;;;;24.77;11.88;;;;;;;;;;4946479;28;20031;-65
2021/10/25 12:41:23;;;;;;;24.08;11.85;;;;;;;;;;4947739;28;20035;-65
2021/10/25 12:43:54;;;;;;;20.35;10.95;;;;;;;;;;4943512;29;20028;-65
2021/10/25 12:46:22;;;;;;;20.35;10.35;;;;;;;;;;4939380;28;20414;-64
2021/10/25 12:48:51;;;;;;;21.88;10.15;;;;;;;;;;4946413;28;20027;-66
2021/10/25 12:51:18;;;;;;;16.83;9.93;;;;;;;;;;4946993;28;20089;-65
2021/10/25 12:53:45;;;;;;;21.20;9.80;;;;;;;;;;4942640;29;20406;-65
2021/10/25 12:56:10;;;;;;;17.08;10.55;;;;;;;;;;4944781;28;20043;-65
2021/10/25 12:58:35;;;;;;;19.75;9.93;;;;;;;;;;4946226;28;20034;-65
2021/10/25 13:01:07;;;;;;;14.93;9.60;;;;;;;;;;4946537;28;20042;-65
2021/10/25 13:03:32;;;;;;;17.20;9.45;;;;;;;;;;4942678;28;20031;-64
2021/10/25 13:06:08;;;;;;;18.35;10.77;;;;;;;;;;4947972;28;20066;-65
2021/10/25 13:08:35;;;;;;;19.80;10.00;;;;;;;;;;4940822;28;20032;-64
2021/10/25 13:11:01;;;;;;;16.67;9.35;;;;;;;;;;4947582;28;20502;-64
2021/10/25 13:13:31;;;;;;;19.58;9.95;;;;;;;;;;4947628;29;20026;-64
2021/10/25 13:15:57;;;;;;;15.90;9.65;;;;;;;;;;4952091;28;20087;-65
2021/10/25 13:18:22;;;;;;;16.17;10.75;;;;;;;;;;4948450;28;20482;-65
2021/10/25 13:20:48;;;;;;;19.23;9.07;;;;;;;;;;4942563;28;20031;-65
2021/10/25 13:23:14;;;;;;;14.05;9.05;;;;;;;;;;4948483;28;20024;-66
2021/10/25 13:25:39;;;;;;;14.95;9.40;;;;;;;;;;4944509;28;20086;-66
2021/10/25 13:28:06;;;;;;;16.70;8.77;;;;;;;;;;4945572;28;20035;-70
2021/10/25 13:30:31;;;;;;;15.93;9.00;;;;;;;;;;4945205;28;20363;-63
2021/10/25 13:32:57;;;;;;;23.42;9.65;;;;;;;;;;4954866;28;20496;-66
2021/10/25 13:35:22;;;;;;;26.48;10.52;;;;;;;;;;4946346;28;20047;-67
2021/10/25 13:37:57;;;;;;;21.75;8.43;;;;;;;;;;4944869;28;20019;-64
2021/10/25 13:40:24;;;;;;;30.23;9.40;;;;;;;;;;4946053;28;20054;-64
2021/10/25 13:42:50;;;;;;;28.27;8.60;;;;;;;;;;4943842;29;20061;-64
2021/10/25 13:45:15;;;;;;;40.50;9.68;;;;;;;;;;4947678;28;20054;-65
2021/10/25 13:47:40;;;;;;;34.53;9.40;;;;;;;;;;4943688;28;20031;-64
2021/10/25 13:50:05;;;;;;;32.58;9.73;;;;;;;;;;4945289;28;20129;-64
2021/10/25 13:52:31;;;;;;;23.80;9.05;;;;;;;;;;4947520;28;20491;-64
2021/10/25 13:54:56;;;;;;;28.95;9.77;;;;;;;;;;4942924;28;20106;-64
2021/10/25 13:57:26;;;;;;;37.25;9.15;;;;;;;;;;4941960;28;20078;-64
2021/10/25 13:59:52;;;;;;;17.02;8.65;;;;;;;;;;4936012;29;20022;-65
2021/10/25 14:02:19;;;;;;;17.80;7.90;;;;;;;;;;4940207;28;20028;-66
2021/10/25 14:04:50;;;;;;;13.65;6.05;;;;;;;;;;4940179;28;20430;-66
2021/10/25 14:07:21;;;;;;;15.55;5.47;;;;;;;;;;4939720;28;20147;-65
2021/10/25 14:10:01;;;;;;;7.10;3.60;;;;;;;;;;4941864;28;20030;-65
2021/10/25 14:12:28;;;;;;;8.18;3.03;;;;;;;;;;4946415;28;20501;-65
2021/10/25 14:15:03;;;;;;;5.47;3.20;;;;;;;;;;4946459;28;20051;-65
2021/10/25 14:17:28;;;;;;;11.38;3.63;;;;;;;;;;4936413;28;20052;-64
2021/10/25 14:19:53;;;;;;;6.95;2.83;;;;;;;;;;4937045;28;20385;-64
2021/10/25 14:22:19;;;;;;;5.28;3.08;;;;;;;;;;4946368;28;20031;-65
2021/10/25 14:24:44;;;;;;;7.63;3.20;;;;;;;;;;4947547;28;20031;-64
2021/10/25 14:27:09;;;;;;;9.05;3.50;;;;;;;;;;4946585;28;20175;-63
2021/10/25 14:29:34;;;;;;;7.53;3.40;;;;;;;;;;4941230;28;20458;-63
2021/10/25 14:32:00;;;;;;;5.72;3.33;;;;;;;;;;4946972;28;20066;-63
2021/10/25 14:34:26;;;;;;;5.90;2.95;;;;;;;;;;4935330;28;20098;-63
2021/10/25 14:36:54;;;;;;;6.88;3.40;;;;;;;;;;4946879;28;20758;-63
2021/10/25 14:39:27;;;;;;;6.72;3.20;;;;;;;;;;4947764;28;20035;-63
2021/10/25 14:57:49;;;;;;;5.90;3.50;;;;;;;;;;4879967;29;20044;-64
2021/10/25 15:00:14;;;;;;;5.53;3.30;;;;;;;;;;4874975;29;20076;-64
2021/10/25 15:02:43;;;;;;;8.30;3.60;;;;;;;;;;4902003;28;20027;-64
2021/10/25 15:05:12;;;;;;;6.40;3.30;;;;;;;;;;4932857;28;20110;-64
2021/10/25 15:07:49;;;;;;;10.57;3.45;;;;;;;;;;4943635;28;20461;-65
2021/10/25 15:10:14;;;;;;;9.02;3.75;;;;;;;;;;4945047;28;20043;-67
2021/10/25 15:12:40;;;;;;;6.72;3.38;;;;;;;;;;4946581;28;20027;-65
2021/10/25 15:15:05;;;;;;;6.72;3.55;;;;;;;;;;4943098;28;20065;-65
2021/10/25 15:17:30;;;;;;;13.27;4.03;;;;;;;;;;4940298;28;20027;-63
2021/10/25 15:19:56;;;;;;;8.05;3.75;;;;;;;;;;4941942;28;20047;-64
2021/10/25 15:22:21;;;;;;;7.75;3.55;;;;;;;;;;4944736;28;20150;-64
2021/10/25 15:24:56;;;;;;;8.75;3.53;;;;;;;;;;4945248;28;20117;-67
2021/10/25 15:27:22;;;;;;;11.90;4.13;;;;;;;;;;4945675;28;20047;-65
2021/10/25 15:29:52;;;;;;;8.77;3.80;;;;;;;;;;4945603;29;20097;-66
2021/10/25 15:32:17;;;;;;;8.88;3.75;;;;;;;;;;4947228;28;20047;-66
2021/10/25 15:34:43;;;;;;;6.22;3.80;;;;;;;;;;4949422;28;20039;-65
2021/10/25 15:37:09;;;;;;;6.35;3.70;;;;;;;;;;4946423;28;20490;-65
2021/10/25 15:39:35;;;;;;;8.57;3.90;;;;;;;;;;4944517;28;20027;-65
2021/10/25 15:42:00;;;;;;;6.88;3.63;;;;;;;;;;4948165;28;20035;-65
2021/10/25 15:44:25;;;;;;;9.40;4.03;;;;;;;;;;4943865;29;20039;-66
2021/10/25 15:46:51;;;;;;;10.55;4.28;;;;;;;;;;4939904;28;20052;-65
2021/10/25 15:49:16;;;;;;;8.27;3.80;;;;;;;;;;4961940;28;20053;-64
2021/10/25 15:51:41;;;;;;;6.25;4.03;;;;;;;;;;4943920;28;20322;-64
2021/10/25 15:54:07;;;;;;;6.40;3.80;;;;;;;;;;4943916;28;20027;-66
2021/10/25 15:56:32;;;;;;;8.40;3.75;;;;;;;;;;4945310;28;20091;-64
2021/10/25 15:58:58;;;;;;;22.58;14.18;;;;;;;;;;4939687;29;20038;-64
2021/10/25 16:01:23;;;;;;;10.40;6.05;;;;;;;;;;4944812;28;20036;-64
2021/10/25 16:03:48;;;;;;;8.80;4.20;;;;;;;;;;4943782;28;20286;-65
2021/10/25 16:06:13;;;;;;;8.18;4.78;;;;;;;;;;4945971;28;20506;-65
2021/10/25 16:08:39;;;;;;;10.88;4.95;;;;;;;;;;4949078;28;20031;-65
2021/10/25 16:11:04;;;;;;;10.70;5.20;;;;;;;;;;4946813;28;20481;-65
2021/10/25 16:13:29;;;;;;;11.25;5.63;;;;;;;;;;4941018;28;20028;-65
2021/10/25 16:15:56;;;;;;;11.13;4.40;;;;;;;;;;4946770;28;20049;-65
2021/10/25 16:18:21;;;;;;;11.27;4.90;;;;;;;;;;4948354;28;20035;-66
2021/10/25 16:20:46;;;;;;;7.13;4.25;;;;;;;;;;4945893;28;20043;-66
2021/10/25 16:23:11;;;;;;;7.95;4.50;;;;;;;;;;4941458;29;20043;-66